Time;durP1;ratioP1;P1;durP2;ratioP2;P2;SDS_P1;SDS_P2;PMS_P1;PMS_P2;Temp;Humidity;BMP_temperature;BMP_pressure;BME280_temperature;BME280_humidity;BME280_pressure;Samples;Min_cycle;Max_cycle;Signal;HPM_P1;HPM_P2
2022/04/13 00:00:29;;;;;;;4.10;3.30;;;;;;;8.04;74.80;99846.91;5111375;28;20210;-62
2022/04/13 00:02:56;;;;;;;4.50;3.30;;;;;;;8.06;74.81;99857.09;5111335;28;20290;-63
2022/04/13 00:05:23;;;;;;;3.90;3.70;;;;;;;8.12;74.90;99852.75;5113151;28;20237;-63
2022/04/13 00:07:50;;;;;;;3.90;3.70;;;;;;;8.18;74.72;99845.00;5111399;28;20278;-63
2022/04/13 00:10:17;;;;;;;3.67;3.47;;;;;;;8.20;74.53;99850.13;5111426;28;20278;-63
2022/04/13 00:12:44;;;;;;;3.43;3.23;;;;;;;8.21;73.76;99847.53;5111008;28;20574;-63
2022/04/13 00:15:11;;;;;;;3.43;3.23;;;;;;;8.12;73.77;99822.13;5111535;28;20230;-63
2022/04/13 00:17:40;;;;;;;3.37;3.17;;;;;;;8.26;73.69;99840.66;5111609;28;20226;-63
2022/04/13 00:20:08;;;;;;;3.30;3.20;;;;;;;8.28;73.57;99838.09;5111254;28;20587;-63
2022/04/13 00:22:35;;;;;;;10.13;3.97;;;;;;;8.28;72.83;99838.94;5110990;28;20294;-63
2022/04/13 00:25:02;;;;;;;3.80;3.60;;;;;;;8.29;73.25;99835.53;5111103;28;20285;-62
2022/04/13 00:27:29;;;;;;;4.10;3.90;;;;;;;8.24;73.32;99832.16;5111367;28;20191;-63
2022/04/13 00:29:56;;;;;;;3.93;3.63;;;;;;;8.22;73.79;99831.34;5110896;28;20321;-63
2022/04/13 00:32:22;;;;;;;3.67;3.37;;;;;;;8.22;73.66;99841.56;5110921;28;20293;-63
2022/04/13 00:34:51;;;;;;;3.97;3.70;;;;;;;8.18;73.63;99831.41;5111328;28;20293;-63
2022/04/13 00:37:18;;;;;;;4.30;4.00;;;;;;;8.15;73.85;99829.72;5111191;28;20205;-63
2022/04/13 00:39:44;;;;;;;4.40;4.10;;;;;;;8.15;73.51;99832.28;5112416;28;20230;-63
2022/04/13 00:42:11;;;;;;;4.43;4.13;;;;;;;8.12;74.26;99827.22;5114553;28;20198;-63
2022/04/13 00:44:38;;;;;;;4.83;4.53;;;;;;;8.10;74.35;99834.06;5114496;28;20290;-63
2022/04/13 00:47:08;;;;;;;4.47;4.27;;;;;;;8.10;74.13;99826.41;5114283;28;20206;-63
2022/04/13 00:49:35;;;;;;;4.80;3.60;;;;;;;8.10;74.26;99823.84;5114977;28;20282;-63
2022/04/13 00:52:06;;;;;;;4.47;4.00;;;;;;;8.03;74.22;99819.69;5114450;28;20195;-63
2022/04/13 00:54:34;;;;;;;3.60;3.40;;;;;;;8.07;74.33;99833.25;5116807;27;20543;-62
2022/04/13 00:57:08;;;;;;;4.20;3.57;;;;;;;7.97;75.24;99832.53;5114741;28;20585;-63
2022/04/13 00:59:38;;;;;;;3.87;3.60;;;;;;;7.75;75.54;99803.06;5114303;28;20218;-62
2022/04/13 01:02:07;;;;;;;4.30;4.00;;;;;;;7.91;75.79;99824.97;5113416;28;20190;-63
2022/04/13 01:04:35;;;;;;;4.13;3.77;;;;;;;7.87;76.59;99825.84;5113656;27;20281;-62
2022/04/13 01:07:07;;;;;;;9.63;4.63;;;;;;;7.72;77.25;99815.84;5113234;28;20195;-63
2022/04/13 01:09:35;;;;;;;4.57;4.27;;;;;;;7.74;77.07;99825.16;5110012;28;20197;-62
2022/04/13 01:12:02;;;;;;;4.10;3.90;;;;;;;7.68;77.40;99829.50;5110368;28;20195;-63
2022/04/13 01:14:29;;;;;;;4.40;4.20;;;;;;;7.65;76.75;99824.44;5113396;28;20654;-63
2022/04/13 01:16:57;;;;;;;4.37;4.17;;;;;;;7.60;77.01;99819.38;5114317;28;20201;-63
2022/04/13 01:19:24;;;;;;;4.47;4.20;;;;;;;7.59;76.54;99827.06;5114088;28;20210;-62
2022/04/13 01:21:58;;;;;;;3.60;3.50;;;;;;;7.55;77.03;99827.94;5114520;28;20198;-63
2022/04/13 01:24:29;;;;;;;4.20;3.90;;;;;;;7.44;77.08;99824.66;5114580;28;20642;-62
2022/04/13 01:26:56;;;;;;;4.57;4.37;;;;;;;7.40;77.26;99824.69;5112744;28;20234;-63
2022/04/13 01:29:23;;;;;;;4.20;4.00;;;;;;;7.36;77.14;99828.16;5114087;28;20379;-63
2022/04/13 01:31:53;;;;;;;4.17;3.80;;;;;;;7.31;77.29;99821.38;5113494;28;20207;-63
2022/04/13 01:34:20;;;;;;;3.97;3.70;;;;;;;7.24;78.29;99820.59;5114124;28;20298;-63
2022/04/13 01:36:47;;;;;;;4.73;4.40;;;;;;;7.20;78.18;99821.53;5114027;28;20286;-63
2022/04/13 01:39:14;;;;;;;4.67;4.33;;;;;;;7.18;77.90;99814.72;5113680;28;20305;-63
2022/04/13 01:41:42;;;;;;;5.20;4.70;;;;;;;7.16;77.77;99814.75;5113881;28;20297;-62
2022/04/13 01:44:09;;;;;;;4.77;4.47;;;;;;;7.15;78.28;99818.16;5113835;28;20666;-63
2022/04/13 01:46:36;;;;;;;4.10;3.90;;;;;;;7.13;77.55;99814.78;5113887;28;20202;-62
2022/04/13 01:49:03;;;;;;;4.67;4.13;;;;;;;7.02;78.17;99801.28;5113794;27;20282;-63
2022/04/13 01:51:30;;;;;;;4.80;4.40;;;;;;;7.06;78.05;99808.06;5114230;27;20248;-62
2022/04/13 01:53:57;;;;;;;4.27;4.03;;;;;;;7.09;78.26;99813.13;5113830;28;20281;-62
2022/04/13 01:56:27;;;;;;;4.80;4.47;;;;;;;6.94;78.28;99792.03;5113768;28;20199;-62
2022/04/13 01:58:55;;;;;;;4.77;4.17;;;;;;;7.02;77.65;99808.09;5109623;28;20630;-61
2022/04/13 02:01:22;;;;;;;6.17;4.43;;;;;;;7.06;78.00;99808.06;5113441;27;20210;-61
2022/04/13 02:03:50;;;;;;;4.43;4.23;;;;;;;7.05;77.56;99810.59;5113364;28;20190;-61
2022/04/13 02:06:17;;;;;;;4.60;4.40;;;;;;;6.98;77.90;99804.72;5113206;28;20195;-61
2022/04/13 02:08:43;;;;;;;4.90;4.53;;;;;;;6.91;77.82;99815.84;5112983;28;20293;-62
2022/04/13 02:11:10;;;;;;;4.17;3.97;;;;;;;6.88;78.14;99817.56;5113109;28;20205;-62
2022/04/13 02:13:39;;;;;;;4.27;3.97;;;;;;;6.86;78.25;99820.13;5113318;28;20726;-62
2022/04/13 02:16:08;;;;;;;4.40;4.00;;;;;;;6.86;78.14;99822.66;5113448;28;20195;-62
2022/04/13 02:18:35;;;;;;;4.13;3.90;;;;;;;6.81;77.97;99822.72;5109926;28;20199;-62
2022/04/13 02:21:02;;;;;;;4.63;4.43;;;;;;;6.80;78.05;99825.28;5113323;28;20215;-61
2022/04/13 02:23:29;;;;;;;4.77;4.47;;;;;;;6.78;78.45;99821.91;5115837;27;20670;-61
2022/04/13 02:25:56;;;;;;;4.73;4.17;;;;;;;6.74;78.58;99820.22;5107957;28;20623;-62
2022/04/13 02:28:23;;;;;;;8.17;5.43;;;;;;;6.75;78.29;99819.38;5112999;28;20699;-61
2022/04/13 02:30:50;;;;;;;5.57;5.07;;;;;;;6.73;78.55;99814.28;5112812;27;20682;-61
2022/04/13 02:33:18;;;;;;;5.23;4.73;;;;;;;6.71;78.51;99820.25;5113005;28;20258;-61
2022/04/13 02:35:45;;;;;;;5.10;4.60;;;;;;;6.68;79.04;99820.28;5112807;28;20202;-61
2022/04/13 02:38:12;;;;;;;5.90;5.13;;;;;;;6.69;79.04;99821.94;5112718;28;20313;-61
2022/04/13 02:40:38;;;;;;;4.70;4.40;;;;;;;6.58;79.28;99808.47;5112642;28;20571;-61
2022/04/13 02:43:05;;;;;;;3.97;3.77;;;;;;;6.63;79.09;99811.81;5112655;28;20281;-61
2022/04/13 02:45:32;;;;;;;4.33;4.13;;;;;;;6.55;79.21;99811.91;5112682;28;20754;-61
2022/04/13 02:47:59;;;;;;;5.07;4.60;;;;;;;6.52;79.01;99809.38;5112613;28;20646;-61
2022/04/13 02:50:27;;;;;;;4.60;4.30;;;;;;;6.51;78.92;99806.81;5112597;28;20206;-61
2022/04/13 02:52:56;;;;;;;3.83;3.53;;;;;;;6.48;79.23;99804.28;5112194;28;20195;-61
2022/04/13 02:55:23;;;;;;;4.40;4.00;;;;;;;6.46;79.18;99803.47;5111858;27;20577;-61
2022/04/13 02:57:50;;;;;;;4.10;3.90;;;;;;;6.44;79.13;99794.97;5111220;28;20639;-61
2022/04/13 03:00:17;;;;;;;4.70;4.17;;;;;;;6.47;79.35;99797.50;5111409;28;20305;-61
2022/04/13 03:02:45;;;;;;;4.50;4.30;;;;;;;6.44;79.30;99800.94;5112073;28;20202;-62
2022/04/13 03:05:12;;;;;;;5.10;4.73;;;;;;;6.29;79.20;99781.53;5112012;28;20195;-61
2022/04/13 03:07:40;;;;;;;5.10;4.70;;;;;;;6.38;79.68;99806.06;5112407;28;20190;-62
2022/04/13 03:10:08;;;;;;;4.80;4.40;;;;;;;6.34;79.35;99802.69;5111988;28;20289;-61
2022/04/13 03:12:36;;;;;;;6.50;5.03;;;;;;;6.25;79.79;99795.13;5111980;28;20199;-61
2022/04/13 03:15:06;;;;;;;4.63;4.37;;;;;;;6.28;80.08;99800.19;5112250;28;20727;-62
2022/04/13 03:17:33;;;;;;;4.73;4.43;;;;;;;6.27;79.80;99797.63;5111957;28;20287;-63
2022/04/13 03:20:00;;;;;;;4.53;4.13;;;;;;;6.24;80.01;99806.16;5107905;28;20243;-62
2022/04/13 03:22:27;;;;;;;5.17;4.70;;;;;;;6.12;80.62;99793.50;5107494;28;20585;-62
2022/04/13 03:24:56;;;;;;;4.70;4.27;;;;;;;6.19;81.10;99807.88;5110765;28;20194;-62
2022/04/13 03:27:22;;;;;;;4.60;4.30;;;;;;;6.18;80.80;99807.88;5109697;28;20206;-62
2022/04/13 03:29:49;;;;;;;5.17;4.77;;;;;;;6.16;80.74;99815.53;5110537;28;20197;-62
2022/04/13 03:32:16;;;;;;;5.47;4.80;;;;;;;6.13;80.48;99818.09;5110306;28;20205;-63
2022/04/13 03:34:43;;;;;;;6.13;4.23;;;;;;;6.12;80.64;99829.13;5111263;28;20195;-62
2022/04/13 03:37:10;;;;;;;5.07;4.67;;;;;;;6.12;80.82;99828.28;5111765;28;20198;-62
2022/04/13 03:39:37;;;;;;;5.30;4.83;;;;;;;6.05;81.23;99832.56;5111489;28;20315;-62
2022/04/13 03:42:06;;;;;;;5.50;4.77;;;;;;;5.98;81.15;99833.44;5112748;28;20190;-62
2022/04/13 03:44:33;;;;;;;5.00;4.70;;;;;;;5.87;81.67;99827.56;5111399;28;20198;-62
2022/04/13 03:47:01;;;;;;;8.47;6.70;;;;;;;5.84;81.82;99832.66;5111413;28;20224;-62
2022/04/13 03:49:28;;;;;;;6.70;6.27;;;;;;;5.81;82.05;99840.28;5111283;28;20212;-63
2022/04/13 03:51:55;;;;;;;11.30;10.07;;;;;;;5.76;82.01;99844.53;5111493;28;20186;-62
2022/04/13 03:54:22;;;;;;;7.47;6.90;;;;;;;5.68;82.35;99846.28;5111452;28;20290;-63
2022/04/13 03:56:49;;;;;;;5.53;5.23;;;;;;;5.58;83.06;99840.38;5111587;28;20190;-62
2022/04/13 03:59:20;;;;;;;5.53;5.13;;;;;;;5.53;83.60;99851.38;5111255;28;20199;-62
2022/04/13 04:01:47;;;;;;;7.03;5.77;;;;;;;5.47;83.92;99853.94;5111900;28;20221;-62
2022/04/13 04:04:14;;;;;;;8.33;5.60;;;;;;;5.40;83.97;99853.13;5111396;28;20301;-62
2022/04/13 04:06:41;;;;;;;5.10;4.80;;;;;;;5.26;84.45;99835.38;5110767;28;20289;-62
2022/04/13 04:09:08;;;;;;;4.97;4.73;;;;;;;5.39;84.25;99853.13;5111231;28;20681;-62
2022/04/13 04:11:34;;;;;;;4.80;4.50;;;;;;;5.36;84.96;99853.13;5110768;28;20191;-63
2022/04/13 04:14:01;;;;;;;5.07;4.30;;;;;;;5.34;84.73;99860.75;5108533;28;20649;-62
2022/04/13 04:16:30;;;;;;;4.20;4.00;;;;;;;5.32;85.86;99851.44;5114636;28;20225;-62
2022/04/13 04:18:56;;;;;;;5.03;4.67;;;;;;;5.27;86.21;99859.91;5110840;28;20726;-63
2022/04/13 04:21:23;;;;;;;13.37;12.00;;;;;;;5.26;86.59;99872.66;5115131;27;20226;-62
2022/04/13 04:23:51;;;;;;;6.50;6.10;;;;;;;5.25;86.68;99876.88;5114693;28;20706;-62
2022/04/13 04:26:18;;;;;;;4.80;4.40;;;;;;;5.23;87.43;99878.56;5113379;28;20255;-63
2022/04/13 04:28:44;;;;;;;4.43;4.23;;;;;;;5.25;88.16;99881.97;5114921;28;20272;-63
2022/04/13 04:31:11;;;;;;;4.30;3.87;;;;;;;5.33;88.22;99883.66;5114829;28;20273;-63
2022/04/13 04:33:40;;;;;;;4.97;4.53;;;;;;;5.43;88.64;99877.72;5115676;27;20285;-63
2022/04/13 04:36:07;;;;;;;4.40;4.00;;;;;;;5.55;87.94;99886.16;5114040;28;20206;-63
2022/04/13 04:38:33;;;;;;;4.47;4.17;;;;;;;5.62;88.18;99872.53;5114704;28;20218;-63
2022/04/13 04:41:00;;;;;;;5.03;4.63;;;;;;;5.88;87.60;99889.47;5112976;27;20312;-62
2022/04/13 04:43:27;;;;;;;4.23;4.03;;;;;;;6.03;86.97;99894.50;5114513;27;20199;-63
2022/04/13 04:45:54;;;;;;;4.60;4.20;;;;;;;6.16;86.50;99889.38;5114693;28;20289;-63
2022/04/13 04:48:21;;;;;;;4.07;3.87;;;;;;;6.29;86.33;99888.44;5119034;27;20289;-63
2022/04/13 04:50:50;;;;;;;5.00;4.70;;;;;;;6.46;85.67;99882.41;5119154;27;20658;-64
2022/04/13 04:53:17;;;;;;;4.43;4.20;;;;;;;6.68;84.59;99902.66;5112201;28;20242;-63
2022/04/13 04:55:44;;;;;;;5.07;4.57;;;;;;;6.83;84.77;99901.69;5113192;28;20240;-63
2022/04/13 04:58:11;;;;;;;5.00;4.70;;;;;;;7.01;83.85;99906.63;5113792;28;20238;-64
2022/04/13 05:00:39;;;;;;;5.87;5.27;;;;;;;7.16;83.12;99903.13;5113984;28;20305;-63
2022/04/13 05:03:06;;;;;;;6.37;5.20;;;;;;;7.25;81.69;99919.19;5114449;27;20206;-63
2022/04/13 05:05:33;;;;;;;5.27;4.87;;;;;;;7.22;81.03;99920.94;5114392;28;20218;-63
2022/04/13 05:08:01;;;;;;;5.00;4.60;;;;;;;7.34;81.21;99916.56;5114593;28;20736;-63
2022/04/13 05:10:28;;;;;;;6.10;5.47;;;;;;;7.47;81.79;99906.25;5114753;28;20628;-64
2022/04/13 05:12:57;;;;;;;5.63;5.13;;;;;;;7.56;81.26;99912.09;5113462;27;20202;-63
2022/04/13 05:15:24;;;;;;;9.40;4.70;;;;;;;7.77;81.14;99918.72;5113769;28;20662;-63
2022/04/13 05:17:51;;;;;;;5.37;5.03;;;;;;;7.93;80.16;99922.78;5113745;28;20671;-64
2022/04/13 05:20:18;;;;;;;8.03;4.63;;;;;;;8.09;79.56;99929.41;5112995;28;20297;-64
2022/04/13 05:22:45;;;;;;;4.90;4.60;;;;;;;8.22;79.20;99925.84;5112360;28;20301;-63
2022/04/13 05:25:15;;;;;;;5.27;4.70;;;;;;;8.41;79.74;99927.34;5112334;28;20199;-63
2022/04/13 05:27:42;;;;;;;5.23;4.83;;;;;;;8.61;79.34;99934.72;5113065;28;20281;-63
2022/04/13 05:30:13;;;;;;;4.77;4.47;;;;;;;8.84;78.59;99937.81;5112113;28;20210;-64
2022/04/13 05:32:48;;;;;;;5.00;4.70;;;;;;;9.10;78.22;99939.13;5114725;27;20589;-63
2022/04/13 05:35:15;;;;;;;4.83;4.43;;;;;;;9.28;76.76;99924.31;5113672;27;20216;-62
2022/04/13 05:37:41;;;;;;;4.50;4.30;;;;;;;9.50;74.23;99930.75;5112733;27;20725;-62
2022/04/13 05:40:09;;;;;;;4.33;4.03;;;;;;;9.73;75.34;99932.91;5112929;28;20582;-62
2022/04/13 05:42:38;;;;;;;3.87;3.70;;;;;;;9.87;72.69;99935.22;5112629;28;20283;-63
2022/04/13 05:45:05;;;;;;;5.67;3.90;;;;;;;10.13;72.77;99935.56;5113217;28;20199;-62
2022/04/13 05:47:32;;;;;;;4.03;3.77;;;;;;;10.37;70.29;99932.53;5113507;27;20285;-62
2022/04/13 05:49:59;;;;;;;3.53;3.33;;;;;;;10.63;70.51;99934.53;5111899;28;20191;-65
2022/04/13 05:52:26;;;;;;;4.30;3.90;;;;;;;10.91;69.86;99934.78;5111737;28;20669;-61
2022/04/13 05:54:53;;;;;;;5.03;4.63;;;;;;;11.23;66.91;99946.84;5111724;28;20286;-61
2022/04/13 05:57:20;;;;;;;9.80;4.83;;;;;;;11.32;68.04;99944.91;5112278;28;20195;-61
2022/04/13 05:59:48;;;;;;;3.67;3.57;;;;;;;11.50;62.75;99949.56;5113370;27;20202;-61
2022/04/13 06:02:15;;;;;;;4.40;4.13;;;;;;;11.61;62.04;99949.31;5112185;28;20313;-62
2022/04/13 06:04:42;;;;;;;6.13;4.37;;;;;;;11.84;64.65;99946.16;5112341;28;20198;-62
2022/04/13 06:07:09;;;;;;;4.30;4.10;;;;;;;12.07;61.75;99948.97;5113134;27;20589;-61
2022/04/13 06:09:36;;;;;;;4.90;4.50;;;;;;;12.27;60.86;99956.97;5113080;28;20194;-61
2022/04/13 06:12:03;;;;;;;4.40;4.20;;;;;;;12.51;61.04;99956.25;5112892;28;20709;-62
2022/04/13 06:14:30;;;;;;;7.20;4.73;;;;;;;12.77;59.45;99958.06;5113601;28;20742;-61
2022/04/13 06:16:59;;;;;;;11.27;6.97;;;;;;;13.00;58.09;99957.34;5113187;28;20666;-63
2022/04/13 06:19:25;;;;;;;11.20;6.83;;;;;;;13.20;56.39;99957.59;5113494;28;20202;-63
2022/04/13 06:21:52;;;;;;;5.00;4.30;;;;;;;13.26;55.07;99954.84;5112848;28;20217;-64
2022/04/13 06:24:19;;;;;;;3.83;3.63;;;;;;;13.38;54.66;99951.84;5113101;28;20630;-62
2022/04/13 06:26:46;;;;;;;3.37;3.13;;;;;;;13.51;55.31;99957.44;5112671;28;20286;-62
2022/04/13 06:29:13;;;;;;;3.60;3.30;;;;;;;13.61;52.68;99959.66;5112808;28;20199;-62
2022/04/13 06:31:40;;;;;;;3.33;3.10;;;;;;;13.81;52.69;99960.72;5112636;28;20749;-62
2022/04/13 06:34:09;;;;;;;4.20;3.27;;;;;;;13.87;52.21;99958.78;5105656;27;20207;-62
2022/04/13 06:36:35;;;;;;;3.37;3.07;;;;;;;13.98;50.89;99963.56;5112782;28;20278;-63
2022/04/13 06:39:02;;;;;;;3.40;3.20;;;;;;;13.97;52.10;99961.88;5108198;28;20707;-62
2022/04/13 06:41:30;;;;;;;3.30;3.10;;;;;;;14.20;50.93;99965.34;5110313;28;20214;-63
2022/04/13 06:43:58;;;;;;;3.17;3.07;;;;;;;14.36;49.62;99963.06;5109049;27;20210;-63
2022/04/13 06:46:25;;;;;;;3.07;2.87;;;;;;;14.36;51.74;99963.06;5101320;28;20213;-62
2022/04/13 06:48:52;;;;;;;5.13;3.10;;;;;;;14.36;49.79;99934.69;5105319;28;20286;-63
2022/04/13 06:51:21;;;;;;;3.70;3.50;;;;;;;14.37;50.19;99935.53;5100758;28;20690;-63
2022/04/13 06:53:48;;;;;;;5.37;3.47;;;;;;;14.64;50.92;99955.97;5109967;27;20290;-63
2022/04/13 06:56:15;;;;;;;2.83;2.60;;;;;;;14.89;50.52;99955.91;5110273;27;20270;-62
2022/04/13 06:58:42;;;;;;;3.53;3.33;;;;;;;15.00;50.00;99961.47;5108909;28;20280;-63
2022/04/13 07:01:10;;;;;;;4.13;3.10;;;;;;;15.22;50.04;99957.13;5111481;28;20276;-64
2022/04/13 07:03:37;;;;;;;3.63;3.27;;;;;;;15.53;47.98;99959.34;5111425;28;20273;-63
2022/04/13 07:06:04;;;;;;;3.17;3.07;;;;;;;15.64;47.49;99956.31;5110656;28;20210;-63
2022/04/13 07:08:32;;;;;;;3.27;3.17;;;;;;;15.74;46.94;99963.63;5112343;27;20640;-63
2022/04/13 07:10:59;;;;;;;3.57;3.20;;;;;;;15.95;48.85;99961.03;5112078;27;20298;-63
2022/04/13 07:13:26;;;;;;;3.00;2.80;;;;;;;16.11;46.56;99967.22;5109703;28;20199;-63
2022/04/13 07:15:53;;;;;;;4.53;2.87;;;;;;;16.26;45.81;99967.38;5110460;28;20658;-63
2022/04/13 07:18:20;;;;;;;4.93;3.10;;;;;;;16.16;45.75;99960.06;5110906;28;20202;-64
2022/04/13 07:20:47;;;;;;;3.23;2.80;;;;;;;16.20;46.46;99961.63;5110750;28;20666;-64
2022/04/13 07:23:14;;;;;;;4.63;3.03;;;;;;;16.38;48.86;99960.81;5109608;27;20198;-64
2022/04/13 07:25:42;;;;;;;2.90;2.70;;;;;;;16.45;45.48;99967.38;5108984;28;20293;-64
2022/04/13 07:28:09;;;;;;;3.37;3.17;;;;;;;16.12;44.74;99963.72;5107969;28;20203;-64
2022/04/13 07:30:36;;;;;;;3.47;3.17;;;;;;;16.40;44.56;99971.94;5109653;28;20209;-64
2022/04/13 07:33:03;;;;;;;3.20;3.00;;;;;;;16.57;43.20;99972.06;5109062;28;20622;-64
2022/04/13 07:35:31;;;;;;;2.90;2.70;;;;;;;16.28;42.71;99962.16;5110278;28;20197;-64
2022/04/13 07:37:59;;;;;;;2.43;2.33;;;;;;;16.40;46.27;99963.34;5110846;28;20307;-61
2022/04/13 07:40:26;;;;;;;2.47;2.37;;;;;;;16.50;43.24;99960.28;5109738;28;20205;-61
2022/04/13 07:42:54;;;;;;;2.63;2.53;;;;;;;16.65;42.39;99975.13;5106088;28;20210;-60
2022/04/13 07:45:21;;;;;;;2.50;2.40;;;;;;;16.86;40.98;99968.13;5110153;28;20236;-62
2022/04/13 07:47:48;;;;;;;2.80;2.63;;;;;;;16.99;41.39;99961.47;5111096;27;20197;-61
2022/04/13 07:50:15;;;;;;;6.10;2.70;;;;;;;17.04;39.55;99966.41;5110334;28;20194;-61
2022/04/13 07:52:43;;;;;;;2.33;2.23;;;;;;;17.09;40.82;99964.47;5108266;28;20640;-62
2022/04/13 07:55:11;;;;;;;2.10;2.00;;;;;;;17.17;41.70;99957.13;5108687;28;20201;-62
2022/04/13 07:57:38;;;;;;;2.00;1.90;;;;;;;17.26;39.21;99956.69;5110986;28;20285;-62
2022/04/13 08:00:09;;;;;;;1.97;1.97;;;;;;;17.32;40.40;99946.03;5108465;28;20535;-63
2022/04/13 08:02:37;;;;;;;1.97;1.97;;;;;;;17.01;38.05;99957.03;5109919;28;20246;-62
2022/04/13 08:05:05;;;;;;;2.60;2.03;;;;;;;16.99;39.06;99960.63;5109164;28;20285;-62
2022/04/13 08:07:32;;;;;;;2.17;2.07;;;;;;;17.16;37.22;99952.84;5109486;28;20285;-63
2022/04/13 08:09:58;;;;;;;2.03;1.93;;;;;;;16.85;37.28;99950.91;5111038;28;20286;-63
2022/04/13 08:12:28;;;;;;;2.20;2.10;;;;;;;16.96;38.81;99947.81;5109947;28;20749;-62
2022/04/13 08:14:55;;;;;;;2.20;2.10;;;;;;;17.13;37.95;99929.69;5107861;28;20551;-63
2022/04/13 08:17:25;;;;;;;2.63;2.47;;;;;;;17.22;39.06;99945.63;5109379;28;20209;-63
2022/04/13 08:19:52;;;;;;;2.97;2.87;;;;;;;17.36;39.15;99946.72;5109632;28;20674;-63
2022/04/13 08:22:23;;;;;;;2.10;2.00;;;;;;;17.39;41.50;99929.25;5110462;28;20769;-63
2022/04/13 08:24:50;;;;;;;2.13;2.03;;;;;;;17.47;38.89;99942.69;5111416;28;20218;-65
2022/04/13 08:27:18;;;;;;;2.83;2.67;;;;;;;17.61;38.32;99948.03;5111669;28;20710;-63
2022/04/13 08:29:46;;;;;;;2.67;2.47;;;;;;;17.92;39.14;99946.50;5110834;28;20819;-63
2022/04/13 08:32:13;;;;;;;2.43;2.33;;;;;;;18.05;39.87;99942.34;5110269;28;20213;-63
2022/04/13 08:34:41;;;;;;;2.47;2.30;;;;;;;18.32;37.57;99935.69;5110342;28;20646;-62
2022/04/13 08:37:09;;;;;;;2.33;1.90;;;;;;;18.28;39.30;99929.00;5110410;28;20686;-62
2022/04/13 08:39:36;;;;;;;2.93;2.73;;;;;;;18.26;38.75;99925.63;5110316;28;20283;-64
2022/04/13 08:42:10;;;;;;;2.23;2.13;;;;;;;18.34;39.86;99923.50;5110400;28;20221;-64
2022/04/13 08:44:50;;;;;;;2.37;2.27;;;;;;;18.36;37.42;99922.47;5111138;28;20631;-63
2022/04/13 08:47:20;;;;;;;2.43;2.33;;;;;;;18.50;39.80;99924.38;5110182;28;20651;-62
2022/04/13 08:49:50;;;;;;;2.63;2.50;;;;;;;18.75;40.49;99914.31;5110413;28;20702;-63
2022/04/13 08:52:20;;;;;;;2.50;2.40;;;;;;;18.71;39.44;99911.94;5109512;28;20230;-62
2022/04/13 08:54:57;;;;;;;2.17;2.07;;;;;;;18.85;41.06;99912.03;5111079;28;20666;-62
2022/04/13 08:57:29;;;;;;;2.60;2.20;;;;;;;19.05;38.27;99900.53;5110020;28;20209;-62
2022/04/13 09:00:08;;;;;;;2.30;2.20;;;;;;;19.23;37.57;99915.06;5109248;28;20215;-63
2022/04/13 09:02:50;;;;;;;2.60;2.45;;;;;;;19.07;35.72;99916.84;5114213;27;20533;-62
2022/04/13 09:05:20;;;;;;;2.43;2.03;;;;;;;18.80;35.59;99907.09;5114031;28;20289;-61
2022/04/13 09:07:50;;;;;;;2.43;2.33;;;;;;;18.73;35.95;99907.53;5113845;28;20195;-62
2022/04/13 09:10:21;;;;;;;2.47;2.27;;;;;;;18.79;36.58;99900.25;5112720;28;20567;-62
2022/04/13 09:12:51;;;;;;;3.03;2.83;;;;;;;18.42;37.10;99900.53;5112183;28;20199;-62
2022/04/13 09:15:18;;;;;;;2.43;2.33;;;;;;;18.74;38.22;99886.66;5112874;28;20203;-62
2022/04/13 09:17:46;;;;;;;2.40;2.20;;;;;;;19.02;39.33;99879.91;5113513;28;20305;-61
2022/04/13 09:20:13;;;;;;;2.70;2.50;;;;;;;19.34;40.39;99871.09;5112083;28;20733;-61
2022/04/13 09:22:43;;;;;;;2.80;2.60;;;;;;;19.40;37.37;99860.38;5112184;28;20214;-61
2022/04/13 09:25:11;;;;;;;2.43;2.23;;;;;;;19.69;36.57;99877.69;5113865;28;20723;-61
2022/04/13 09:27:38;;;;;;;3.00;2.70;;;;;;;19.52;36.26;99874.38;5111524;28;20203;-61
2022/04/13 09:30:08;;;;;;;2.57;2.27;;;;;;;19.42;36.21;99860.28;5113250;28;20198;-62
2022/04/13 09:32:35;;;;;;;2.50;2.40;;;;;;;19.47;37.10;99850.44;5113161;28;20981;-61
2022/04/13 09:35:03;;;;;;;2.37;2.27;;;;;;;19.72;38.15;99861.88;5111977;28;20647;-61
2022/04/13 09:37:30;;;;;;;2.60;2.40;;;;;;;19.84;38.71;99844.69;5112612;28;20289;-61
2022/04/13 09:40:00;;;;;;;2.77;2.57;;;;;;;20.06;36.25;99859.84;5113062;28;20198;-61
2022/04/13 09:42:27;;;;;;;2.70;2.60;;;;;;;20.09;36.47;99857.03;5113119;28;20710;-64
2022/04/13 09:45:01;;;;;;;2.50;2.37;;;;;;;20.22;37.25;99857.97;5112148;28;20808;-62
2022/04/13 09:47:31;;;;;;;2.60;2.50;;;;;;;20.25;35.93;99850.78;5111206;28;20199;-62
2022/04/13 09:49:58;;;;;;;3.10;2.37;;;;;;;20.30;38.84;99842.72;5112938;28;20219;-62
2022/04/13 09:52:28;;;;;;;2.93;2.50;;;;;;;20.37;36.56;99839.63;5110181;28;20305;-62
2022/04/13 09:54:55;;;;;;;2.40;2.20;;;;;;;20.55;35.79;99837.59;5111919;28;20290;-61
2022/04/13 09:57:24;;;;;;;2.40;2.30;;;;;;;20.65;33.84;99843.06;5109857;28;20228;-61
2022/04/13 09:59:55;;;;;;;2.17;2.07;;;;;;;20.68;32.68;99835.88;5112444;28;20637;-61
2022/04/13 10:02:35;;;;;;;3.23;1.80;;;;;;;20.98;33.51;99824.41;5112352;28;20318;-61
2022/04/13 10:05:03;;;;;;;2.13;1.93;;;;;;;20.79;33.63;99830.00;5111254;28;20252;-61
2022/04/13 10:07:29;;;;;;;5.13;2.97;;;;;;;20.20;34.10;99826.78;5110684;27;20439;-65
2022/04/13 10:09:56;;;;;;;2.87;2.67;;;;;;;20.24;34.34;99835.25;5110377;28;20226;-66
2022/04/13 10:12:24;;;;;;;2.93;2.60;;;;;;;19.92;33.77;99832.91;5110349;28;20309;-64
2022/04/13 10:14:51;;;;;;;2.80;2.60;;;;;;;19.83;34.13;99789.22;5111792;28;20207;-64
2022/04/13 10:17:20;;;;;;;2.37;2.27;;;;;;;20.07;36.33;99832.84;5111847;28;20198;-65
2022/04/13 10:19:54;;;;;;;2.40;2.20;;;;;;;20.19;33.13;99834.72;5111972;28;20194;-65
2022/04/13 10:22:21;;;;;;;2.57;2.37;;;;;;;19.91;33.66;99831.22;5110867;28;20219;-65
2022/04/13 10:24:48;;;;;;;2.30;2.20;;;;;;;20.13;34.13;99824.69;5111463;28;20202;-64
2022/04/13 10:27:17;;;;;;;2.00;1.90;;;;;;;20.38;33.62;99819.63;5110869;28;20769;-64
2022/04/13 10:29:47;;;;;;;3.03;2.00;;;;;;;20.52;34.20;99822.19;5111937;28;20654;-64
2022/04/13 10:32:15;;;;;;;1.87;1.77;;;;;;;20.66;33.11;99814.31;5111287;28;20191;-64
2022/04/13 10:34:44;;;;;;;1.60;1.60;;;;;;;20.69;34.09;99816.72;5110712;28;20301;-65
2022/04/13 10:37:12;;;;;;;1.97;1.87;;;;;;;20.69;31.86;99810.66;5109765;28;20207;-65
2022/04/13 10:39:41;;;;;;;1.53;1.53;;;;;;;20.54;34.22;99814.28;5108082;28;20848;-64
2022/04/13 10:42:09;;;;;;;1.63;1.53;;;;;;;20.68;32.16;99802.00;5110562;28;20712;-65
2022/04/13 10:44:38;;;;;;;1.33;1.30;;;;;;;20.77;35.48;99798.00;5110792;28;20226;-65
2022/04/13 10:47:08;;;;;;;1.80;1.70;;;;;;;21.04;33.84;99795.31;5109233;28;20203;-64
2022/04/13 10:49:51;;;;;;;1.87;1.77;;;;;;;21.17;31.81;99798.81;5110303;28;20663;-64
2022/04/13 10:52:37;;;;;;;1.33;1.27;;;;;;;21.05;32.86;99795.22;5107972;28;20254;-66
2022/04/13 10:55:07;;;;;;;1.87;1.77;;;;;;;20.34;31.35;99795.56;5111027;28;20609;-65
2022/04/13 10:57:38;;;;;;;1.87;1.77;;;;;;;20.48;33.21;99789.47;5111148;28;20658;-63
2022/04/13 11:00:10;;;;;;;2.50;2.30;;;;;;;20.65;33.67;99783.97;5110428;28;20207;-65
2022/04/13 11:02:48;;;;;;;1.70;1.57;;;;;;;20.85;32.73;99780.91;5102193;28;20245;-65
2022/04/13 11:05:15;;;;;;;1.87;1.80;;;;;;;21.02;34.20;99782.41;5105268;28;20302;-65
2022/04/13 11:07:43;;;;;;;1.60;1.50;;;;;;;21.20;32.31;99769.91;5109608;28;20286;-61
2022/04/13 11:10:19;;;;;;;1.53;1.53;;;;;;;21.19;33.07;99769.09;5109595;28;20287;-61
2022/04/13 11:12:47;;;;;;;1.83;1.73;;;;;;;21.12;36.88;99767.00;5110620;28;20218;-61
2022/04/13 11:15:14;;;;;;;1.67;1.57;;;;;;;21.20;33.47;99759.47;5110610;28;20196;-61
2022/04/13 11:17:44;;;;;;;1.50;1.40;;;;;;;21.10;35.48;99751.44;5109761;28;20701;-61
2022/04/13 11:20:20;;;;;;;2.43;1.93;;;;;;;21.19;32.98;99752.63;5111544;28;20685;-61
2022/04/13 11:22:47;;;;;;;1.40;1.30;;;;;;;21.43;31.12;99763.97;5111008;28;20222;-61
2022/04/13 11:25:44;;;;;;;3.23;2.93;;;;;;;21.53;31.74;99746.75;5110021;28;20585;-61
2022/04/13 11:28:11;;;;;;;1.90;1.80;;;;;;;21.56;30.42;99753.50;5110606;28;20200;-61
2022/04/13 11:31:07;;;;;;;1.83;1.73;;;;;;;21.32;29.70;99756.06;5111378;28;20258;-61
2022/04/13 11:34:06;;;;;;;1.57;1.57;;;;;;;21.41;30.56;99752.81;5110310;28;20195;-61
2022/04/13 11:36:51;;;;;;;1.70;1.70;;;;;;;21.56;29.16;99749.13;5065907;28;20199;-60
2022/04/13 11:39:44;;;;;;;1.53;1.53;;;;;;;21.36;29.00;99741.84;5106719;27;20234;-61
2022/04/13 11:42:16;;;;;;;1.77;1.67;;;;;;;21.26;31.30;99717.38;5109847;28;20210;-61